createdAt,value
2022-10-11T00:01:34.695Z,98654.56
2022-10-11T00:04:01.254Z,98632.78
2022-10-11T00:06:27.641Z,98627.66
2022-10-11T00:08:54.066Z,98608.88
2022-10-11T00:11:20.494Z,98615.03
2022-10-11T00:13:46.880Z,98615.53
2022-10-11T00:16:15.325Z,98648.41
2022-10-11T00:18:42.269Z,98674.84
2022-10-11T00:21:12.079Z,98696.09
2022-10-11T00:23:38.929Z,98714.50
2022-10-11T00:26:08.975Z,98723.97
2022-10-11T00:28:36.540Z,98754.69
2022-10-11T00:31:07.697Z,98778.75
2022-10-11T00:33:34.399Z,98811.72
2022-10-11T00:36:01.131Z,98839.28
2022-10-11T00:38:27.569Z,98861.25
2022-10-11T00:40:54.099Z,98882.78
2022-10-11T00:43:23.841Z,98918.00
2022-10-11T00:45:56.098Z,98939.38
2022-10-11T00:48:44.546Z,98961.63
2022-10-11T00:51:23.700Z,98967.25
2022-10-11T00:53:51.498Z,98999.78
2022-10-11T00:56:24.885Z,99017.03
2022-10-11T00:58:52.108Z,99051.97
2022-10-11T01:01:18.738Z,99064.03
2022-10-11T01:03:45.697Z,99090.56
2022-10-11T01:06:12.158Z,99112.44
2022-10-11T01:08:39.154Z,99140.97
2022-10-11T01:11:06.459Z,99159.75
2022-10-11T01:13:36.177Z,99181.00
2022-10-11T01:16:14.793Z,99196.13
2022-10-11T01:18:54.122Z,99213.75
2022-10-11T01:21:32.296Z,99217.53
2022-10-11T01:24:08.703Z,99217.69
2022-10-11T01:27:12.977Z,99226.78
2022-10-11T01:29:49.439Z,99216.38
2022-10-11T01:32:17.311Z,99211.63
2022-10-11T01:34:52.900Z,99194.25
2022-10-11T01:37:29.116Z,99190.16
2022-10-11T01:40:06.033Z,99182.63
2022-10-11T01:42:33.714Z,99177.06
2022-10-11T01:45:00.368Z,99167.31
2022-10-11T01:47:27.148Z,99173.19
2022-10-11T01:49:58.760Z,99144.72
2022-10-11T01:52:33.998Z,99147.25
2022-10-11T01:55:15.656Z,99124.84
2022-10-11T01:57:48.615Z,99106.84
2022-10-11T02:00:34.061Z,99085.56
2022-10-11T02:03:15.894Z,99057.13
2022-10-11T02:05:46.864Z,99050.28
2022-10-11T02:08:25.604Z,99045.97
2022-10-11T02:10:58.778Z,99050.91
2022-10-11T02:13:39.514Z,99035.00
2022-10-11T02:16:10.921Z,99017.59
2022-10-11T02:18:42.188Z,99023.03
2022-10-11T02:21:13.392Z,99018.72
2022-10-11T02:23:48.025Z,99019.41
2022-10-11T02:26:14.757Z,98990.03
2022-10-11T02:28:43.676Z,98973.19
2022-10-11T02:31:11.849Z,98954.81
2022-10-11T02:33:51.956Z,98934.47
2022-10-11T02:36:26.543Z,98899.16
2022-10-11T02:38:59.675Z,98871.03
2022-10-11T02:41:38.562Z,98823.47
2022-10-11T02:44:10.960Z,98753.69
2022-10-11T02:46:38.618Z,98682.28
2022-10-11T02:49:07.318Z,98632.53
2022-10-11T02:51:33.890Z,98543.94
2022-10-11T02:54:00.403Z,98493.94
2022-10-11T02:56:26.911Z,98468.56
2022-10-11T02:58:53.288Z,98423.25
2022-10-11T03:01:19.756Z,98355.34
2022-10-11T03:03:46.384Z,98267.00
2022-10-11T03:06:13.042Z,98117.72
2022-10-11T03:08:39.617Z,97942.19
2022-10-11T03:11:06.127Z,97871.31
2022-10-11T03:13:32.968Z,97999.63
2022-10-11T03:16:07.364Z,98052.22
2022-10-11T03:18:34.063Z,98062.53
2022-10-11T03:21:00.452Z,98120.22
2022-10-11T03:23:26.896Z,98120.94
2022-10-11T03:25:53.322Z,98116.13
2022-10-11T03:28:20.537Z,98126.81
2022-10-11T03:30:48.407Z,98119.47
2022-10-11T03:33:15.020Z,98128.88
2022-10-11T03:35:44.467Z,98113.53
2022-10-11T03:38:14.534Z,98136.13
2022-10-11T03:40:41.949Z,98148.09
2022-10-11T03:43:08.627Z,98149.47
2022-10-11T03:45:35.172Z,98153.09
2022-10-11T03:48:01.694Z,98152.81
2022-10-11T03:50:28.505Z,98158.09
2022-10-11T03:52:54.927Z,98147.25
2022-10-11T03:55:21.303Z,98151.97
2022-10-11T03:57:47.717Z,98147.00
2022-10-11T04:00:14.271Z,98153.91
2022-10-11T04:02:40.726Z,98160.56
2022-10-11T04:05:07.725Z,98163.06
2022-10-11T04:07:34.480Z,98165.28
2022-10-11T04:10:00.994Z,98174.13
2022-10-11T04:12:27.450Z,98165.81
2022-10-11T04:14:53.831Z,98163.31
2022-10-11T04:17:20.248Z,98158.03
2022-10-11T04:19:46.647Z,98159.44
2022-10-11T04:22:13.122Z,98169.13
2022-10-11T04:24:39.496Z,98170.19
2022-10-11T04:27:06.286Z,98170.72
2022-10-11T04:29:33.151Z,98174.84
2022-10-11T04:31:59.953Z,98174.41
2022-10-11T04:34:26.463Z,98159.28
2022-10-11T04:36:53.125Z,98153.91
2022-10-11T04:39:19.605Z,98162.06
2022-10-11T04:41:46.093Z,98145.97
2022-10-11T04:44:12.989Z,98138.00
2022-10-11T04:46:39.396Z,98131.63
2022-10-11T04:49:06.127Z,98142.66
2022-10-11T04:51:33.794Z,98137.66
2022-10-11T04:54:00.379Z,98132.97
2022-10-11T04:56:26.782Z,98132.97
2022-10-11T04:58:54.591Z,98133.13
2022-10-11T05:01:21.469Z,98132.88
2022-10-11T05:03:47.917Z,98140.28
2022-10-11T05:06:14.717Z,98146.47
2022-10-11T05:08:41.343Z,98139.41
2022-10-11T05:11:10.905Z,98124.28
2022-10-11T05:13:37.515Z,98114.03
2022-10-11T05:16:09.775Z,98114.75
2022-10-11T05:18:37.729Z,98123.56
2022-10-11T05:21:14.699Z,98121.78
2022-10-11T05:23:41.168Z,98114.03
2022-10-11T05:26:08.334Z,98112.38
2022-10-11T05:28:35.273Z,98112.94
2022-10-11T05:31:01.722Z,98113.53
2022-10-11T05:33:28.354Z,98116.59
2022-10-11T05:35:54.726Z,98119.28
2022-10-11T05:38:21.646Z,98121.72
2022-10-11T05:40:48.212Z,98130.56
2022-10-11T05:43:15.118Z,98141.53
2022-10-11T05:45:43.151Z,98145.94
2022-10-11T05:48:10.419Z,98151.97
2022-10-11T05:50:37.681Z,98159.84
2022-10-11T05:53:04.940Z,98160.53
2022-10-11T05:55:39.660Z,98164.94
2022-10-11T05:58:07.253Z,98160.53
2022-10-11T06:00:37.919Z,98159.19
2022-10-11T06:03:08.686Z,98158.28
2022-10-11T06:05:35.931Z,98149.91
2022-10-11T06:08:03.893Z,98162.28
2022-10-11T06:10:30.273Z,98166.16
2022-10-11T06:12:56.811Z,98176.06
2022-10-11T06:15:23.402Z,98177.09
2022-10-11T06:17:49.839Z,98176.69
2022-10-11T06:20:16.331Z,98179.84
2022-10-11T06:22:42.800Z,98201.53
2022-10-11T06:25:09.459Z,98220.09
2022-10-11T06:27:36.204Z,98213.13
2022-10-11T06:30:03.052Z,98218.44
2022-10-11T06:32:29.523Z,98215.16
2022-10-11T06:34:55.950Z,98220.94
2022-10-11T06:37:22.378Z,98214.66
2022-10-11T06:39:50.363Z,98219.38
2022-10-11T06:42:17.117Z,98225.56
2022-10-11T06:44:43.520Z,98228.75
2022-10-11T06:47:10.018Z,98241.22
2022-10-11T06:49:36.472Z,98242.75
2022-10-11T06:52:02.952Z,98237.72
2022-10-11T06:54:29.409Z,98240.88
2022-10-11T06:56:55.946Z,98245.44
2022-10-11T06:59:22.328Z,98239.66
2022-10-11T07:01:48.761Z,98247.47
2022-10-11T07:04:15.137Z,98250.53
2022-10-11T07:06:41.937Z,98230.88
2022-10-11T07:09:08.592Z,98226.72
2022-10-11T07:11:35.363Z,98221.00
2022-10-11T07:14:07.582Z,98211.75
2022-10-11T07:16:36.170Z,98186.34
2022-10-11T07:19:04.314Z,98126.84
2022-10-11T07:21:32.989Z,98153.44
2022-10-11T07:24:00.400Z,98443.84
2022-10-11T07:26:27.881Z,98745.78
2022-10-11T07:28:54.506Z,99015.50
2022-10-11T07:31:23.712Z,99119.97
2022-10-11T07:33:50.547Z,99089.06
2022-10-11T07:36:17.222Z,99022.09
2022-10-11T07:38:46.239Z,99136.16
2022-10-11T07:41:13.625Z,99264.97
2022-10-11T07:43:40.151Z,99304.41
2022-10-11T07:46:07.314Z,99352.97
2022-10-11T07:48:35.174Z,99410.91
2022-10-11T07:51:06.744Z,99429.97
2022-10-11T07:53:42.065Z,99489.00
2022-10-11T07:56:12.613Z,99523.00
2022-10-11T07:58:40.283Z,99490.50
2022-10-11T08:01:07.591Z,99477.94
2022-10-11T08:03:34.308Z,99482.25
2022-10-11T08:06:07.544Z,99477.53
2022-10-11T08:08:34.769Z,99449.69
2022-10-11T08:11:01.205Z,99474.16
2022-10-11T08:13:27.675Z,99468.41
2022-10-11T08:15:54.271Z,99471.75
2022-10-11T08:18:20.671Z,99469.16
2022-10-11T08:20:47.431Z,99450.97
2022-10-11T08:23:14.097Z,99470.38
2022-10-11T08:25:43.787Z,99476.66
2022-10-11T08:28:15.716Z,99483.38
2022-10-11T08:30:48.658Z,99496.94
2022-10-11T08:33:16.225Z,99505.72
2022-10-11T08:35:42.664Z,99523.88
2022-10-11T08:38:09.155Z,99512.69
2022-10-11T08:40:36.027Z,99539.63
2022-10-11T08:43:14.694Z,99539.50
2022-10-11T08:45:41.024Z,99571.22
2022-10-11T08:48:38.451Z,99590.22
2022-10-11T08:51:14.950Z,99606.41
2022-10-11T08:53:46.573Z,99607.00
2022-10-11T08:56:15.034Z,99648.94
2022-10-11T08:58:47.485Z,99700.69
2022-10-11T09:01:19.027Z,99771.09
2022-10-11T09:03:47.265Z,99766.06
2022-10-11T09:06:50.374Z,99736.88
2022-10-11T09:09:40.515Z,99771.47
2022-10-11T09:12:41.263Z,99804.34
2022-10-11T09:15:20.567Z,99802.47
2022-10-11T09:17:46.933Z,99789.41
2022-10-11T09:20:40.549Z,99851.06
2022-10-11T09:23:42.466Z,99878.91
2022-10-11T09:26:35.544Z,99873.47
2022-10-11T09:29:14.315Z,99863.94
2022-10-11T09:31:41.945Z,99874.16
2022-10-11T09:34:15.020Z,99862.06
2022-10-11T09:37:11.586Z,99898.13
2022-10-11T09:39:45.633Z,99905.19
2022-10-11T09:42:12.691Z,99919.97
2022-10-11T09:44:45.195Z,99916.41
2022-10-11T09:47:16.390Z,99968.19
2022-10-11T09:49:51.954Z,99992.41
2022-10-11T09:52:21.476Z,100003.28
2022-10-11T09:55:00.408Z,99996.53
2022-10-11T09:57:30.397Z,99995.84
2022-10-11T10:00:12.113Z,100003.09
2022-10-11T10:02:44.077Z,100007.34
2022-10-11T10:05:10.455Z,100007.41
2022-10-11T10:07:57.307Z,99998.91
2022-10-11T10:10:59.418Z,99990.63
2022-10-11T10:13:28.978Z,100002.91
2022-10-11T10:15:59.223Z,100016.91
2022-10-11T10:19:02.179Z,100019.94
2022-10-11T10:21:33.182Z,100019.81
2022-10-11T10:24:04.550Z,100022.28
2022-10-11T10:26:32.498Z,100020.59
2022-10-11T10:29:05.210Z,100029.38
2022-10-11T10:32:08.801Z,100032.75
2022-10-11T10:34:31.144Z,100029.38
2022-10-11T10:37:05.947Z,100029.91
2022-10-11T10:39:57.747Z,100026.91
2022-10-11T10:42:24.198Z,100025.16
2022-10-11T10:44:57.133Z,100029.66
2022-10-11T10:47:42.198Z,100026.22
2022-10-11T10:50:32.534Z,100034.63
2022-10-11T10:53:20.934Z,100038.41
2022-10-11T10:56:01.217Z,100033.88
2022-10-11T10:58:52.820Z,100031.53
2022-10-11T11:01:27.660Z,100033.28
2022-10-11T11:04:22.153Z,100029.09
2022-10-11T11:06:59.682Z,100026.63
2022-10-11T11:09:39.707Z,100032.91
2022-10-11T11:12:34.411Z,100020.66
2022-10-11T11:15:31.317Z,100022.69
2022-10-11T11:18:01.829Z,100024.34
2022-10-11T11:20:40.449Z,100025.44
2022-10-11T11:23:20.789Z,100017.56
2022-10-11T11:26:01.451Z,100018.72
2022-10-11T11:28:42.104Z,100023.16
2022-10-11T11:31:37.146Z,100015.63
2022-10-11T11:34:26.052Z,100023.38
2022-10-11T11:37:00.273Z,100020.59
2022-10-11T11:39:34.497Z,100017.59
2022-10-11T11:42:08.173Z,100008.44
2022-10-11T11:44:45.694Z,100007.34
2022-10-11T11:47:19.042Z,100011.75
2022-10-11T11:49:52.855Z,100003.22
2022-10-11T11:52:32.363Z,100010.47
2022-10-11T11:55:16.071Z,99999.38
2022-10-11T11:57:51.732Z,99997.41
2022-10-11T12:00:21.997Z,99990.78
2022-10-11T12:03:02.533Z,100003.00
2022-10-11T12:05:33.262Z,100000.56
2022-10-11T12:08:01.180Z,100000.31
2022-10-11T12:10:30.436Z,99995.06
2022-10-11T12:13:16.985Z,99987.97
2022-10-11T12:16:13.499Z,99981.31
2022-10-11T12:18:58.897Z,99971.44
2022-10-11T12:21:28.431Z,99979.31
2022-10-11T12:24:00.593Z,99986.22
2022-10-11T12:26:35.073Z,99992.84
2022-10-11T12:29:03.946Z,99996.22
2022-10-11T12:31:35.988Z,99987.28
2022-10-11T12:34:02.341Z,99994.78
2022-10-11T12:36:31.392Z,99985.56
2022-10-11T12:39:19.720Z,99995.91
2022-10-11T12:41:53.630Z,99999.28
2022-10-11T12:44:29.395Z,99978.91
2022-10-11T12:46:56.516Z,99978.69
2022-10-11T12:49:38.149Z,99979.25
2022-10-11T12:52:25.157Z,99978.81
2022-10-11T12:55:06.993Z,99971.88
2022-10-11T12:58:12.200Z,99966.84
2022-10-11T13:01:05.093Z,99982.72
2022-10-11T13:03:50.810Z,99982.63
2022-10-11T13:06:26.645Z,99976.78
2022-10-11T13:09:25.749Z,99978.22
2022-10-11T13:12:20.170Z,99975.94
2022-10-11T13:15:09.802Z,99970.69
2022-10-11T13:17:38.986Z,99971.78
2022-10-11T13:20:23.858Z,99970.66
2022-10-11T13:22:55.329Z,99964.50
2022-10-11T13:25:24.700Z,99963.31
2022-10-11T13:27:53.306Z,99963.41
2022-10-11T13:30:25.555Z,99963.06
2022-10-11T13:32:53.248Z,99960.38
2022-10-11T13:35:28.673Z,99954.59
2022-10-11T13:37:55.332Z,99943.78
2022-10-11T13:40:23.259Z,99959.75
2022-10-11T13:42:52.028Z,99950.00
2022-10-11T13:45:24.720Z,99944.19
2022-10-11T13:47:52.656Z,99942.91
2022-10-11T13:50:31.756Z,99941.22
2022-10-11T13:53:07.081Z,99941.56
2022-10-11T13:55:36.664Z,99935.69
2022-10-11T13:58:15.029Z,99933.50
2022-10-11T14:00:54.831Z,99940.50
2022-10-11T14:03:22.154Z,99939.75
2022-10-11T14:05:55.190Z,99922.75
2022-10-11T14:08:34.348Z,99932.19
2022-10-11T14:11:06.111Z,99929.94
2022-10-11T14:13:47.139Z,99922.00
2022-10-11T14:16:27.977Z,99939.75
2022-10-11T14:19:09.941Z,99931.22
2022-10-11T14:21:45.793Z,99935.78
2022-10-11T14:24:13.544Z,99935.78
2022-10-11T14:26:43.422Z,99931.38
2022-10-11T14:29:27.749Z,99933.38
2022-10-11T14:32:01.580Z,99931.66
2022-10-11T14:34:28.695Z,99938.41
2022-10-11T14:36:55.282Z,99927.03
2022-10-11T14:39:24.700Z,99934.50
2022-10-11T14:41:52.511Z,99933.06
2022-10-11T14:44:20.441Z,99932.03
2022-10-11T14:46:49.184Z,99932.69
2022-10-11T14:49:20.319Z,99923.94
2022-10-11T14:51:49.216Z,99936.13
2022-10-11T14:54:18.853Z,99940.38
2022-10-11T14:56:46.171Z,99936.56
2022-10-11T14:59:18.820Z,99926.78
2022-10-11T15:01:53.381Z,99928.72
2022-10-11T15:04:25.775Z,99926.22
2022-10-11T15:06:54.074Z,99930.97
2022-10-11T15:09:21.273Z,99938.81
2022-10-11T15:11:49.439Z,99931.53
2022-10-11T15:14:16.161Z,99929.00
2022-10-11T15:16:43.229Z,99910.78
2022-10-11T15:19:21.147Z,99925.44
2022-10-11T15:21:47.846Z,99921.50
2022-10-11T15:24:14.993Z,99923.16
2022-10-11T15:26:41.927Z,99917.06
2022-10-11T15:29:11.304Z,99918.16
2022-10-11T15:31:37.981Z,99918.88
2022-10-11T15:34:04.429Z,99922.50
2022-10-11T15:36:30.948Z,99916.53
2022-10-11T15:38:57.385Z,99916.53
2022-10-11T15:41:24.206Z,99923.53
2022-10-11T15:43:50.766Z,99916.97
2022-10-11T15:46:22.237Z,99924.38
2022-10-11T15:48:49.929Z,99926.91
2022-10-11T15:51:17.019Z,99929.44
2022-10-11T15:53:43.411Z,99922.84
2022-10-11T15:56:19.458Z,99929.69
2022-10-11T15:58:46.024Z,99912.91
2022-10-11T16:01:18.886Z,99923.53
2022-10-11T16:03:48.372Z,99902.25
2022-10-11T16:06:16.467Z,99880.41
2022-10-11T16:08:43.124Z,99874.22
2022-10-11T16:11:10.529Z,99848.97
2022-10-11T16:13:37.000Z,99824.41
2022-10-11T16:16:05.497Z,99799.16
2022-10-11T16:18:35.355Z,99784.28
2022-10-11T16:21:06.842Z,99761.16
2022-10-11T16:23:33.474Z,99742.59
2022-10-11T16:26:02.302Z,99756.34
2022-10-11T16:28:29.674Z,99744.13
2022-10-11T16:30:56.944Z,99724.97
2022-10-11T16:33:23.641Z,99716.75
2022-10-11T16:35:50.117Z,99696.50
2022-10-11T16:38:16.944Z,99684.75
2022-10-11T16:40:43.455Z,99679.94
2022-10-11T16:43:10.191Z,99682.63
2022-10-11T16:45:37.019Z,99669.84
2022-10-11T16:48:03.985Z,99652.03
2022-10-11T16:50:31.733Z,99631.19
2022-10-11T16:52:59.944Z,99608.97
2022-10-11T16:55:26.527Z,99587.09
2022-10-11T16:57:52.948Z,99569.19
2022-10-11T17:00:19.879Z,99559.63
2022-10-11T17:02:46.366Z,99544.34
2022-10-11T17:05:12.831Z,99553.25
2022-10-11T17:07:39.574Z,99551.31
2022-10-11T17:10:06.649Z,99553.03
2022-10-11T17:12:35.446Z,99545.34
2022-10-11T17:15:01.870Z,99540.28
2022-10-11T17:17:28.310Z,99526.13
2022-10-11T17:19:54.748Z,99501.88
2022-10-11T17:22:21.248Z,99486.06
2022-10-11T17:24:47.674Z,99471.53
2022-10-11T17:27:14.448Z,99441.16
2022-10-11T17:29:41.155Z,99438.75
2022-10-11T17:32:07.673Z,99424.38
2022-10-11T17:34:34.348Z,99400.00
2022-10-11T17:37:00.933Z,99387.19
2022-10-11T17:39:27.522Z,99360.94
2022-10-11T17:41:53.947Z,99336.19
2022-10-11T17:44:21.649Z,99316.56
2022-10-11T17:46:48.373Z,99303.28
2022-10-11T17:49:15.072Z,99293.66
2022-10-11T17:51:42.043Z,99284.31
2022-10-11T17:54:13.181Z,99272.28
2022-10-11T17:56:41.710Z,99247.97
2022-10-11T17:59:14.825Z,99216.19
2022-10-11T18:01:41.464Z,99208.06
2022-10-11T18:04:10.123Z,99189.63
2022-10-11T18:06:39.540Z,99171.19
2022-10-11T18:09:06.359Z,99154.78
2022-10-11T18:11:32.993Z,99125.31
2022-10-11T18:13:59.653Z,99111.69
2022-10-11T18:16:28.278Z,99086.19
2022-10-11T18:18:57.236Z,99068.34
2022-10-11T18:21:33.413Z,99028.25
2022-10-11T18:24:03.070Z,98963.63
2022-10-11T18:26:30.858Z,98931.81
2022-10-11T18:28:58.197Z,98912.91
2022-10-11T18:31:28.039Z,98882.09
2022-10-11T18:33:55.166Z,98871.56
2022-10-11T18:36:24.338Z,98851.22
2022-10-11T18:38:56.516Z,98824.25
2022-10-11T18:41:25.251Z,98839.53
2022-10-11T18:43:54.909Z,98824.31
2022-10-11T18:46:22.378Z,98815.25
2022-10-11T18:48:50.626Z,98775.47
2022-10-11T18:51:23.038Z,98751.81
2022-10-11T18:53:50.085Z,98735.81
2022-10-11T18:56:20.659Z,98715.50
2022-10-11T18:58:48.530Z,98682.78
2022-10-11T19:01:18.755Z,98574.72
2022-10-11T19:03:47.187Z,98512.00
2022-10-11T19:06:17.603Z,98455.50
2022-10-11T19:08:48.408Z,98416.41
2022-10-11T19:11:16.216Z,98340.03
2022-10-11T19:13:43.108Z,98162.13
2022-10-11T19:16:15.701Z,98189.34
2022-10-11T19:18:44.425Z,98187.56
2022-10-11T19:21:13.300Z,98182.28
2022-10-11T19:23:42.133Z,98185.63
2022-10-11T19:26:13.520Z,98192.72
2022-10-11T19:28:40.022Z,98199.44
2022-10-11T19:31:11.698Z,98200.16
2022-10-11T19:33:38.126Z,98208.31
2022-10-11T19:36:06.699Z,98209.34
2022-10-11T19:38:34.831Z,98209.09
2022-10-11T19:41:02.880Z,98221.78
2022-10-11T19:43:29.316Z,98227.13
2022-10-11T19:46:06.538Z,98228.81
2022-10-11T19:48:39.529Z,98226.16
2022-10-11T19:51:09.350Z,98229.56
2022-10-11T19:53:36.607Z,98229.22
2022-10-11T19:56:05.200Z,98240.25
2022-10-11T19:58:31.625Z,98252.66
2022-10-11T20:01:07.172Z,98240.31
2022-10-11T20:03:34.205Z,98247.03
2022-10-11T20:06:02.258Z,98252.69
2022-10-11T20:08:31.257Z,98270.59
2022-10-11T20:11:02.332Z,98255.41
2022-10-11T20:13:33.936Z,98282.44
2022-10-11T20:16:04.159Z,98274.13
2022-10-11T20:18:31.467Z,98392.53
2022-10-11T20:21:03.427Z,98396.50
2022-10-11T20:23:30.944Z,98392.47
2022-10-11T20:26:02.048Z,98391.03
2022-10-11T20:28:31.219Z,98393.47
2022-10-11T20:30:58.696Z,98393.47
2022-10-11T20:33:25.977Z,98394.41
2022-10-11T20:36:04.443Z,98387.38
2022-10-11T20:38:32.486Z,98397.66
2022-10-11T20:40:59.386Z,98402.84
2022-10-11T20:43:26.097Z,98398.31
2022-10-11T20:46:00.620Z,98398.31
2022-10-11T20:48:27.194Z,98404.38
2022-10-11T20:50:53.770Z,98401.41
2022-10-11T20:53:20.245Z,98402.84
2022-10-11T20:55:47.046Z,98485.78
2022-10-11T20:58:13.480Z,98481.97
2022-10-11T21:00:40.646Z,98479.81
2022-10-11T21:03:07.132Z,98479.81
2022-10-11T21:05:33.699Z,98481.50
2022-10-11T21:08:00.450Z,98481.25
2022-10-11T21:10:27.577Z,98472.31
2022-10-11T21:12:55.682Z,98471.47
2022-10-11T21:15:22.081Z,98472.19
2022-10-11T21:17:48.605Z,98468.25
2022-10-11T21:20:15.382Z,98466.13
2022-10-11T21:22:41.767Z,98464.81
2022-10-11T21:25:08.308Z,98461.34
2022-10-11T21:27:35.081Z,98460.88
2022-10-11T21:30:01.695Z,98453.38
2022-10-11T21:32:28.115Z,98455.41
2022-10-11T21:34:54.519Z,98461.09
2022-10-11T21:37:20.929Z,98455.84
2022-10-11T21:39:47.367Z,98452.84
2022-10-11T21:42:13.849Z,98442.03
2022-10-11T21:44:43.120Z,98445.94
2022-10-11T21:47:10.352Z,98435.69
2022-10-11T21:49:36.959Z,98437.63
2022-10-11T21:52:04.236Z,98437.59
2022-10-11T21:54:30.626Z,98437.13
2022-10-11T21:56:57.040Z,98429.25
2022-10-11T21:59:23.430Z,98437.72
2022-10-11T22:01:49.909Z,98434.25
2022-10-11T22:04:16.356Z,98430.88
2022-10-11T22:06:42.748Z,98437.28
2022-10-11T22:09:09.349Z,98435.63
2022-10-11T22:11:35.982Z,98432.63
2022-10-11T22:14:02.871Z,98429.44
2022-10-11T22:16:29.427Z,98424.66
2022-10-11T22:18:56.226Z,98431.56
2022-10-11T22:21:23.901Z,98427.50
2022-10-11T22:23:53.382Z,98422.50
2022-10-11T22:26:22.512Z,98421.31
2022-10-11T22:28:49.232Z,98428.22
2022-10-11T22:31:18.082Z,98437.72
2022-10-11T22:36:17.238Z,98431.59
2022-10-11T22:38:44.076Z,98415.63
2022-10-11T22:41:10.728Z,98423.66
2022-10-11T22:43:37.702Z,98420.78
2022-10-11T22:46:05.462Z,98413.72
2022-10-11T22:48:31.939Z,98422.25
2022-10-11T22:50:58.592Z,98417.91
2022-10-11T22:53:25.001Z,98411.44
2022-10-11T22:55:51.442Z,98410.59
2022-10-11T22:58:17.921Z,98419.88
2022-10-11T23:00:44.362Z,98415.41
2022-10-11T23:03:15.643Z,98411.41
2022-10-11T23:05:42.571Z,98415.69
2022-10-11T23:08:09.471Z,98409.97
2022-10-11T23:10:39.688Z,98411.38
2022-10-11T23:13:07.765Z,98396.84
2022-10-11T23:15:34.189Z,98403.63
2022-10-11T23:18:00.703Z,98403.00
2022-10-11T23:20:27.290Z,98398.28
2022-10-11T23:22:53.697Z,98403.25
2022-10-11T23:25:20.319Z,98400.28
2022-10-11T23:27:46.754Z,98404.41
2022-10-11T23:30:13.467Z,98397.63
2022-10-11T23:32:39.896Z,98398.44
2022-10-11T23:35:06.579Z,98398.38
2022-10-11T23:37:33.025Z,98370.75
2022-10-11T23:39:59.454Z,98388.63
2022-10-11T23:42:25.859Z,98396.00
2022-10-11T23:44:52.910Z,98390.53
2022-10-11T23:47:19.368Z,98381.00
2022-10-11T23:49:45.759Z,98383.13
2022-10-11T23:52:12.203Z,98389.09
2022-10-11T23:54:38.581Z,98379.06
2022-10-11T23:57:04.973Z,98378.25
2022-10-11T23:59:31.468Z,98373.41
